createdAt,value
2018-02-25T00:02:10.835Z,5.47
2018-02-25T00:04:43.775Z,5.44
2018-02-25T00:07:19.423Z,5.46
2018-02-25T00:09:56.717Z,5.51
2018-02-25T00:12:33.658Z,5.47
2018-02-25T00:15:14.753Z,5.45
2018-02-25T00:17:48.948Z,5.42
2018-02-25T00:20:30.627Z,5.42
2018-02-25T00:23:11.576Z,5.45
2018-02-25T00:25:53.036Z,5.43
2018-02-25T00:28:30.220Z,5.44
2018-02-25T00:31:04.528Z,5.47
2018-02-25T00:33:44.999Z,5.43
2018-02-25T00:36:20.858Z,5.43
2018-02-25T00:38:56.469Z,5.43
2018-02-25T00:41:37.274Z,5.44
2018-02-25T00:44:16.617Z,5.45
2018-02-25T00:46:56.570Z,5.47
2018-02-25T00:49:36.235Z,5.56
2018-02-25T00:52:20.352Z,5.49
2018-02-25T00:54:59.474Z,5.51
2018-02-25T00:57:36.634Z,5.48
2018-02-25T01:00:17.321Z,5.54
2018-02-25T01:03:03.106Z,5.44
2018-02-25T01:05:38.017Z,5.50
2018-02-25T01:08:15.120Z,5.57
2018-02-25T01:10:47.906Z,5.52
2018-02-25T01:13:29.876Z,5.49
2018-02-25T01:20:35.016Z,5.52
2018-02-25T01:23:13.575Z,5.58
2018-02-25T01:26:00.439Z,5.53
2018-02-25T01:28:47.582Z,5.52
2018-02-25T01:31:30.838Z,5.68
2018-02-25T01:34:12.575Z,5.59
2018-02-25T01:37:00.358Z,5.57
2018-02-25T01:39:46.702Z,5.58
2018-02-25T01:42:36.246Z,5.60
2018-02-25T01:45:26.392Z,5.66
2018-02-25T01:48:05.171Z,5.71
2018-02-25T01:51:07.331Z,5.76
2018-02-25T01:53:52.866Z,5.77
2018-02-25T01:56:41.442Z,5.73
2018-02-25T01:59:27.560Z,5.66
2018-02-25T02:02:11.116Z,5.65
2018-02-25T02:04:59.953Z,5.67
2018-02-25T02:07:53.741Z,5.72
2018-02-25T02:10:57.101Z,5.72
2018-02-25T02:13:57.003Z,5.70
2018-02-25T02:16:46.833Z,5.67
2018-02-25T02:19:38.141Z,5.68
2018-02-25T02:22:37.567Z,5.68
2018-02-25T02:25:27.691Z,5.65
2018-02-25T02:28:18.785Z,5.75
2018-02-25T02:31:02.865Z,5.73
2018-02-25T02:33:49.525Z,5.68
2018-02-25T02:36:43.279Z,5.74
2018-02-25T02:39:28.622Z,5.65
2018-02-25T02:42:14.597Z,5.62
2018-02-25T02:45:08.794Z,5.68
2018-02-25T02:47:50.061Z,5.60
2018-02-25T02:50:37.359Z,5.58
2018-02-25T02:53:23.121Z,5.56
2018-02-25T02:56:14.936Z,5.49
2018-02-25T02:59:02.692Z,5.46
2018-02-25T03:01:55.922Z,5.42
2018-02-25T03:04:49.857Z,5.40
2018-02-25T03:07:41.111Z,5.42
2018-02-25T03:10:35.457Z,5.38
2018-02-25T03:13:32.522Z,5.38
2018-02-25T03:19:25.217Z,5.37
2018-02-25T03:27:40.831Z,5.33
2018-02-25T03:30:21.805Z,5.33
2018-02-25T03:33:01.053Z,5.36
2018-02-25T03:35:41.004Z,5.29
2018-02-25T03:38:16.065Z,5.27
2018-02-25T03:40:48.410Z,5.20
2018-02-25T03:43:19.619Z,5.18
2018-02-25T03:45:50.502Z,5.13
2018-02-25T03:48:26.668Z,5.14
2018-02-25T03:51:00.774Z,5.16
2018-02-25T03:53:30.790Z,5.11
2018-02-25T03:59:50.707Z,5.07
2018-02-25T04:02:20.984Z,5.10
2018-02-25T04:04:55.340Z,5.07
2018-02-25T04:07:26.831Z,5.05
2018-02-25T04:09:59.034Z,5.02
2018-02-25T04:12:30.981Z,5.01
2018-02-25T04:15:05.091Z,4.95
2018-02-25T05:04:34.657Z,4.43
2018-02-25T05:07:09.115Z,4.46
2018-02-25T05:25:13.964Z,4.26
2018-02-25T05:43:20.031Z,4.05
2018-02-25T05:45:50.786Z,4.05
2018-02-25T05:51:47.060Z,4.00
2018-02-25T05:54:19.292Z,3.96
2018-02-25T05:56:52.327Z,3.95
2018-02-25T06:36:08.135Z,3.60
2018-02-25T06:38:37.755Z,3.61
2018-02-25T06:41:07.754Z,3.62
2018-02-25T06:43:38.683Z,3.57
2018-02-25T06:46:09.391Z,3.62
2018-02-25T06:48:39.500Z,3.61
2018-02-25T06:51:11.225Z,3.58
2018-02-25T06:53:42.233Z,3.57
2018-02-25T06:56:14.727Z,3.54
2018-02-25T06:58:47.575Z,3.54
2018-02-25T07:01:18.255Z,3.50
2018-02-25T07:03:47.955Z,3.48
2018-02-25T07:06:17.843Z,3.53
2018-02-25T07:08:48.655Z,3.50
2018-02-25T07:11:18.381Z,3.44
2018-02-25T07:13:48.079Z,3.45
2018-02-25T07:16:18.835Z,3.44
2018-02-25T07:18:49.483Z,3.50
2018-02-25T07:21:19.774Z,3.49
2018-02-25T07:23:53.543Z,3.51
2018-02-25T07:26:25.566Z,3.52
2018-02-25T07:28:59.529Z,3.48
2018-02-25T07:31:29.817Z,3.50
2018-02-25T07:34:00.520Z,3.47
2018-02-25T07:36:30.288Z,3.43
2018-02-25T07:38:59.991Z,3.50
2018-02-25T07:41:39.850Z,3.45
2018-02-25T07:44:10.415Z,3.39
2018-02-25T07:46:41.590Z,3.38
2018-02-25T07:49:13.773Z,3.47
2018-02-25T07:51:46.350Z,3.43
2018-02-25T07:54:16.240Z,3.46
2018-02-25T07:56:46.042Z,3.40
2018-02-25T07:59:15.746Z,3.38
2018-02-25T08:01:47.199Z,3.34
2018-02-25T08:04:17.018Z,3.42
2018-02-25T08:06:46.585Z,3.31
2018-02-25T08:09:17.912Z,3.25
2018-02-25T08:11:47.613Z,3.19
2018-02-25T08:14:17.310Z,3.15
2018-02-25T08:16:58.266Z,3.18
2018-02-25T08:19:32.401Z,3.13
2018-02-25T08:22:02.079Z,3.08
2018-02-25T08:24:31.905Z,2.99
2018-02-25T08:27:01.629Z,3.07
2018-02-25T08:29:31.245Z,3.04
2018-02-25T08:32:01.883Z,2.92
2018-02-25T08:34:31.623Z,2.93
2018-02-25T08:37:13.616Z,2.77
2018-02-25T08:39:47.068Z,2.89
2018-02-25T08:42:22.139Z,2.82
2018-02-25T08:44:51.808Z,2.89
2018-02-25T08:47:21.651Z,2.88
2018-02-25T08:49:52.108Z,2.81
2018-02-25T08:52:21.649Z,2.75
2018-02-25T09:30:11.182Z,2.56
2018-02-25T09:33:02.137Z,2.54
2018-02-25T09:36:15.433Z,2.52
2018-02-25T09:38:58.312Z,2.51
2018-02-25T09:57:08.594Z,2.46
2018-02-25T09:59:46.927Z,2.51
2018-02-25T10:02:29.622Z,2.45
2018-02-25T10:05:29.996Z,2.56
2018-02-25T10:08:01.878Z,2.55
2018-02-25T10:10:34.386Z,2.68
2018-02-25T10:13:04.656Z,2.66
2018-02-25T10:15:39.185Z,2.63
2018-02-25T10:22:25.738Z,2.71
2018-02-25T10:25:22.607Z,2.73
2018-02-25T10:52:11.037Z,2.27
2018-02-25T10:54:41.801Z,2.16
2018-02-25T10:57:11.320Z,2.16
2018-02-25T10:59:42.003Z,2.29
2018-02-25T11:02:15.560Z,2.35
2018-02-25T11:51:26.631Z,2.36
2018-02-25T11:53:56.378Z,2.27
2018-02-25T11:56:26.188Z,2.31
2018-02-25T11:58:56.312Z,2.22
2018-02-25T12:16:56.268Z,2.24
2018-02-25T13:17:33.605Z,1.90
2018-02-25T13:20:03.469Z,1.97
2018-02-25T13:22:34.047Z,1.96
2018-02-25T13:25:03.826Z,1.94
2018-02-25T13:27:35.279Z,1.88
2018-02-25T13:43:38.551Z,1.84
2018-02-25T13:48:57.819Z,1.95
2018-02-25T14:05:50.753Z,1.95
2018-02-25T14:08:21.051Z,2.01
2018-02-25T14:10:50.573Z,2.00
2018-02-25T14:13:20.213Z,2.01
2018-02-25T14:15:49.948Z,1.90
2018-02-25T14:18:21.338Z,1.86
2018-02-25T14:20:51.024Z,1.87
2018-02-25T14:23:21.567Z,1.84
2018-02-25T14:25:51.531Z,1.70
2018-02-25T14:28:21.196Z,1.65
2018-02-25T14:30:56.190Z,1.60
2018-02-25T14:33:26.026Z,1.45
2018-02-25T14:35:55.830Z,1.49
2018-02-25T14:38:25.576Z,1.47
2018-02-25T14:40:56.374Z,1.34
2018-02-25T14:43:26.073Z,1.27
2018-02-25T14:45:55.708Z,1.23
2018-02-25T14:48:25.641Z,1.19
2018-02-25T14:50:55.421Z,1.22
2018-02-25T14:53:26.053Z,1.22
2018-02-25T14:55:55.666Z,1.20
2018-02-25T14:58:26.924Z,0.93
2018-02-25T15:01:05.142Z,1.01
2018-02-25T15:03:38.241Z,0.84
2018-02-25T15:08:44.193Z,0.84
2018-02-25T15:11:14.508Z,0.82
2018-02-25T15:13:44.435Z,0.84
2018-02-25T15:16:13.913Z,0.68
2018-02-25T15:18:43.595Z,0.66
2018-02-25T15:21:13.488Z,0.73
2018-02-25T15:24:03.249Z,0.74
2018-02-25T15:26:33.750Z,0.60
2018-02-25T15:29:03.406Z,0.59
2018-02-25T15:47:08.395Z,0.58
2018-02-25T15:49:38.450Z,0.55
2018-02-25T16:13:54.758Z,0.47
2018-02-25T16:16:25.785Z,0.40
2018-02-25T16:18:58.143Z,0.31
2018-02-25T16:21:28.675Z,0.32
2018-02-25T16:23:58.313Z,0.35
2018-02-25T16:29:54.727Z,0.18
2018-02-25T16:32:25.402Z,0.17
2018-02-25T16:34:56.053Z,0.17
2018-02-25T16:44:41.081Z,-0.06
2018-02-25T16:47:11.356Z,-0.12
2018-02-25T16:49:41.386Z,-0.13
2018-02-25T16:52:11.890Z,-0.10
2018-02-25T16:54:42.182Z,-0.20
2018-02-25T16:57:12.877Z,-0.24
2018-02-25T16:59:44.062Z,-0.25
2018-02-25T17:02:13.929Z,-0.31
2018-02-25T17:04:46.070Z,-0.27
2018-02-25T17:07:15.786Z,-0.28
2018-02-25T17:09:45.418Z,-0.27
2018-02-25T17:12:16.876Z,-0.39
2018-02-25T17:14:47.352Z,-0.35
2018-02-25T17:17:18.162Z,-0.43
2018-02-25T17:19:49.048Z,-0.46
2018-02-25T17:22:18.846Z,-0.48
2018-02-25T17:24:48.662Z,-0.38
2018-02-25T17:27:18.498Z,-0.48
2018-02-25T17:29:53.873Z,-0.52
2018-02-25T17:32:26.045Z,-0.62
2018-02-25T17:34:56.112Z,-0.63
2018-02-25T17:49:30.698Z,-0.67
2018-02-25T17:52:01.075Z,-0.70
2018-02-25T17:54:34.652Z,-0.75
2018-02-25T17:57:05.497Z,-0.72
2018-02-25T17:59:39.096Z,-0.76
2018-02-25T18:02:08.954Z,-0.72
2018-02-25T18:04:42.030Z,-0.69
2018-02-25T18:14:53.244Z,-0.88
2018-02-25T18:18:28.520Z,-0.89
2018-02-25T18:21:02.162Z,-0.85
2018-02-25T18:23:31.941Z,-0.86
2018-02-25T18:33:58.506Z,-0.90
2018-02-25T18:36:33.701Z,-0.97
2018-02-25T18:39:15.744Z,-1.01
2018-02-25T18:41:49.332Z,-1.01
2018-02-25T18:44:19.041Z,-0.93
2018-02-25T18:46:51.768Z,-1.01
2018-02-25T18:49:23.208Z,-0.98
2018-02-25T18:52:01.342Z,-0.99
2018-02-25T18:54:35.066Z,-0.97
2018-02-25T19:11:24.845Z,-0.96
2018-02-25T19:13:54.810Z,-0.93
2018-02-25T19:16:24.901Z,-0.91
2018-02-25T19:18:55.669Z,-0.94
2018-02-25T19:21:26.174Z,-0.96
2018-02-25T19:23:57.325Z,-0.90
2018-02-25T19:26:28.591Z,-0.95
2018-02-25T19:28:59.336Z,-0.96
2018-02-25T19:31:29.308Z,-0.93
2018-02-25T19:33:59.270Z,-0.93
2018-02-25T19:39:29.610Z,-0.92
2018-02-25T19:42:02.984Z,-0.99
2018-02-25T19:44:41.969Z,-1.06
2018-02-25T19:47:15.316Z,-1.07
2018-02-25T19:49:53.092Z,-1.10
2018-02-25T19:52:28.682Z,-1.12
2018-02-25T19:55:04.682Z,-1.14
2018-02-25T19:57:45.759Z,-1.08
2018-02-25T20:00:52.962Z,-1.09
2018-02-25T20:03:27.010Z,-1.12
2018-02-25T20:05:58.751Z,-1.13
2018-02-25T20:08:30.918Z,-1.13
2018-02-25T20:11:02.834Z,-1.14
2018-02-25T20:13:34.405Z,-1.22
2018-02-25T20:16:06.698Z,-1.28
2018-02-25T20:18:36.965Z,-1.26
2018-02-25T20:21:08.260Z,-1.31
2018-02-25T20:23:38.417Z,-1.30
2018-02-25T20:26:16.231Z,-1.37
2018-02-25T20:29:04.991Z,-1.43
2018-02-25T20:31:55.975Z,-1.31
2018-02-25T20:34:35.346Z,-1.45
2018-02-25T20:37:06.566Z,-1.42
2018-02-25T20:39:36.263Z,-1.47
2018-02-25T20:42:05.788Z,-1.52
2018-02-25T20:44:35.594Z,-1.60
2018-02-25T20:47:05.510Z,-1.61
2018-02-25T20:49:35.078Z,-1.58
2018-02-25T20:52:04.747Z,-1.66
2018-02-25T20:54:34.370Z,-1.66
2018-02-25T20:57:04.837Z,-1.71
2018-02-25T20:59:34.431Z,-1.82
2018-02-25T21:02:04.087Z,-1.81
2018-02-25T21:04:38.553Z,-1.85
2018-02-25T21:07:08.805Z,-1.86
2018-02-25T21:09:38.432Z,-1.87
2018-02-25T21:12:07.971Z,-1.92
2018-02-25T21:14:37.594Z,-1.93
2018-02-25T21:17:08.184Z,-1.95
2018-02-25T21:19:37.892Z,-1.99
2018-02-25T21:22:08.030Z,-1.95
2018-02-25T21:24:38.541Z,-1.99
2018-02-25T21:27:08.092Z,-2.03
2018-02-25T21:29:38.428Z,-2.01
2018-02-25T21:32:08.791Z,-2.02
2018-02-25T21:34:38.652Z,-2.06
2018-02-25T21:37:09.059Z,-2.06
2018-02-25T21:39:38.880Z,-2.11
2018-02-25T21:42:08.660Z,-2.13
2018-02-25T21:44:38.280Z,-2.13
2018-02-25T21:47:09.446Z,-2.16
2018-02-25T21:49:39.171Z,-2.18
2018-02-25T21:52:09.717Z,-2.17
2018-02-25T21:54:49.335Z,-2.24
2018-02-25T21:57:25.295Z,-2.21
2018-02-25T22:00:01.427Z,-2.27
2018-02-25T22:02:36.327Z,-2.27
2018-02-25T22:05:06.232Z,-2.27
2018-02-25T22:07:36.028Z,-2.29
2018-02-25T22:10:05.682Z,-2.26
2018-02-25T22:12:35.637Z,-2.28
2018-02-25T22:15:06.610Z,-2.28
2018-02-25T22:17:36.203Z,-2.28
2018-02-25T22:20:05.894Z,-2.31
2018-02-25T22:22:35.690Z,-2.30
2018-02-25T22:25:06.212Z,-2.25
2018-02-25T22:27:36.827Z,-2.28
2018-02-25T22:30:06.464Z,-2.29
2018-02-25T22:32:36.562Z,-2.38
2018-02-25T22:35:10.165Z,-2.39
2018-02-25T22:37:50.823Z,-2.41
2018-02-25T22:40:23.626Z,-2.36
2018-02-25T22:42:53.776Z,-2.43
2018-02-25T22:45:23.664Z,-2.43
2018-02-25T22:48:05.796Z,-2.48
2018-02-25T22:50:35.375Z,-2.53
2018-02-25T22:53:05.096Z,-2.56
2018-02-25T22:55:35.365Z,-2.57
2018-02-25T22:58:05.027Z,-2.57
2018-02-25T23:00:35.463Z,-2.60
2018-02-25T23:03:06.878Z,-2.71
2018-02-25T23:05:36.982Z,-2.65
2018-02-25T23:08:07.049Z,-2.62
2018-02-25T23:10:37.981Z,-2.62
2018-02-25T23:13:09.869Z,-2.64
2018-02-25T23:15:39.981Z,-2.70
2018-02-25T23:18:09.779Z,-2.69
2018-02-25T23:20:39.352Z,-2.72
2018-02-25T23:23:09.561Z,-2.67
2018-02-25T23:25:39.477Z,-2.68
2018-02-25T23:28:09.397Z,-2.71
2018-02-25T23:30:39.283Z,-2.76
2018-02-25T23:33:09.643Z,-2.79
